KSMF/SMF METAR and TAF weather

Enter ICAO airport designator
Station Type Date Time Source
KSMF METAR 2021/01/27 12:53 UTC NOAA

KSMF 271253Z 16018G31KT 10SM -RA SCT017 BKN036 OVC043 06/03 A2975 RMK AO2 PK WND 17044/1154 RAB1159 SLP072 P0001 T00560033


Station Type Date Time Source
KSMF Decoded METAR 2021/01/27 12:53 UTC NOAA

SACRAMENTO INTERNATIONAL AIRPORT, CA, United States (KSMF) 38-42N 121-36W 6M
Jan 27, 2021 - 07:53 AM EST / 2021.01.27 1253 UTC
Wind: from the SSE (160 degrees) at 21 MPH (18 KT) gusting to 36 MPH (31 KT):0
Visibility: 10 mile(s):0
Sky conditions: overcast
Weather: light rain
Precipitation last hour: 0.01 inches
Temperature: 42.1 F (5.6 C)
Dew Point: 37.9 F (3.3 C)
Relative Humidity: 85%
Pressure (altimeter): 29.75 in. Hg (1007 hPa)
ob: KSMF 271253Z 16018G31KT 10SM -RA SCT017 BKN036 OVC043 06/03 A2975 RMK AO2 PK WND 17044/1154 RAB1159 SLP072 P0001 T00560033
cycle: 13

Station Type Date Time Source
KSMF TAF 2021/01/27 12:33 UTC NOAA

TAF KSMF 271130Z 2712/2812 16028G46KT 6SM -RA BKN015 OVC045
FM271500 16017G28KT P6SM -SHRA OVC015
FM280000 16015G22KT 6SM -RA OVC015

Example: see airport list